createdAt,value
2018-03-28T00:01:53.257Z,75.63
2018-03-28T00:04:20.804Z,75.36
2018-03-28T00:06:48.225Z,75.76
2018-03-28T00:09:15.677Z,76.02
2018-03-28T00:11:43.165Z,76.35
2018-03-28T00:14:10.613Z,76.66
2018-03-28T00:16:38.097Z,76.93
2018-03-28T00:19:05.550Z,77.20
2018-03-28T00:21:33.142Z,77.23
2018-03-28T00:24:00.587Z,77.36
2018-03-28T00:26:28.086Z,77.29
2018-03-28T00:28:55.541Z,77.45
2018-03-28T00:31:23.029Z,78.20
2018-03-28T00:33:50.487Z,78.55
2018-03-28T00:36:17.969Z,78.78
2018-03-28T00:38:45.438Z,78.66
2018-03-28T00:41:12.925Z,78.83
2018-03-28T00:43:40.380Z,78.73
2018-03-28T00:46:08.001Z,78.69
2018-03-28T00:48:35.467Z,79.26
2018-03-28T00:51:14.553Z,79.42
2018-03-28T00:53:41.999Z,79.47
2018-03-28T00:56:09.478Z,80.06
2018-03-28T00:58:36.929Z,79.02
2018-03-28T01:01:04.378Z,78.09
2018-03-28T01:03:31.861Z,79.00
2018-03-28T01:05:59.309Z,79.63
2018-03-28T01:08:26.789Z,79.80
2018-03-28T01:10:54.241Z,80.38
2018-03-28T01:13:21.725Z,80.87
2018-03-28T01:15:49.262Z,80.89
2018-03-28T01:18:16.746Z,81.29
2018-03-28T01:20:44.202Z,80.75
2018-03-28T01:23:11.680Z,81.19
2018-03-28T01:25:39.131Z,81.42
2018-03-28T01:28:06.614Z,81.51
2018-03-28T01:30:34.064Z,81.72
2018-03-28T01:33:01.559Z,81.52
2018-03-28T01:35:29.015Z,81.77
2018-03-28T01:37:56.497Z,82.00
2018-03-28T01:40:24.002Z,81.91
2018-03-28T01:42:51.469Z,82.03
2018-03-28T01:45:18.929Z,81.99
2018-03-28T01:47:46.504Z,81.82
2018-03-28T01:50:14.686Z,82.27
2018-03-28T01:52:42.357Z,82.58
2018-03-28T01:55:09.813Z,82.69
2018-03-28T01:57:37.265Z,82.29
2018-03-28T02:00:05.509Z,82.29
2018-03-28T02:02:32.970Z,82.23
2018-03-28T02:05:00.450Z,81.73
2018-03-28T02:07:27.901Z,81.72
2018-03-28T02:09:55.388Z,81.94
2018-03-28T02:12:22.845Z,82.29
2018-03-28T02:14:50.327Z,81.63
2018-03-28T02:17:18.690Z,81.32
2018-03-28T02:19:47.138Z,81.73
2018-03-28T02:22:14.597Z,81.42
2018-03-28T02:24:42.085Z,81.74
2018-03-28T02:27:09.605Z,81.21
2018-03-28T02:29:37.098Z,81.62
2018-03-28T02:32:04.626Z,82.00
2018-03-28T02:34:32.163Z,82.01
2018-03-28T02:36:59.642Z,81.84
2018-03-28T02:39:27.126Z,81.38
2018-03-28T02:41:54.592Z,81.78
2018-03-28T02:44:22.422Z,81.59
2018-03-28T02:46:49.878Z,81.55
2018-03-28T02:49:17.331Z,81.60
2018-03-28T02:51:44.815Z,81.36
2018-03-28T02:54:12.270Z,81.23
2018-03-28T02:56:39.774Z,81.33
2018-03-28T02:59:07.229Z,81.39
2018-03-28T03:01:34.708Z,81.49
2018-03-28T03:04:02.167Z,81.71
2018-03-28T03:06:29.660Z,81.40
2018-03-28T03:08:57.143Z,81.63
2018-03-28T03:11:24.620Z,81.60
2018-03-28T03:13:52.069Z,81.33
2018-03-28T03:16:19.570Z,81.21
2018-03-28T03:18:47.034Z,81.68
2018-03-28T03:21:15.502Z,81.49
2018-03-28T03:23:42.953Z,81.80
2018-03-28T03:26:10.432Z,81.68
2018-03-28T03:28:37.881Z,81.43
2018-03-28T03:31:06.350Z,81.39
2018-03-28T03:33:34.701Z,81.55
2018-03-28T03:36:02.205Z,81.78
2018-03-28T03:38:29.658Z,81.80
2018-03-28T03:40:57.112Z,81.31
2018-03-28T03:43:24.610Z,81.16
2018-03-28T03:45:52.070Z,81.22
2018-03-28T03:48:19.557Z,81.45
2018-03-28T03:50:48.017Z,81.55
2018-03-28T03:53:15.505Z,81.88
2018-03-28T03:55:42.952Z,81.61
2018-03-28T03:58:10.436Z,81.44
2018-03-28T04:00:37.885Z,81.16
2018-03-28T04:03:05.365Z,81.48
2018-03-28T04:05:32.820Z,81.33
2018-03-28T04:08:00.301Z,81.10
2018-03-28T04:10:27.763Z,81.30
2018-03-28T04:12:55.280Z,81.25
2018-03-28T04:15:23.676Z,81.64
2018-03-28T04:17:51.197Z,81.04
2018-03-28T04:20:18.668Z,81.27
2018-03-28T04:22:46.182Z,81.59
2018-03-28T04:25:13.666Z,81.17
2018-03-28T04:27:41.177Z,81.03
2018-03-28T04:30:08.661Z,81.64
2018-03-28T04:32:36.141Z,81.53
2018-03-28T04:35:03.648Z,81.44
2018-03-28T04:37:31.139Z,82.10
2018-03-28T04:39:58.656Z,82.43
2018-03-28T04:42:26.133Z,82.70
2018-03-28T04:44:54.596Z,82.61
2018-03-28T04:47:22.983Z,82.58
2018-03-28T04:49:50.496Z,82.18
2018-03-28T04:52:17.972Z,82.25
2018-03-28T04:54:46.464Z,83.04
2018-03-28T04:57:13.936Z,82.75
2018-03-28T04:59:41.426Z,82.07
2018-03-28T05:02:08.881Z,83.13
2018-03-28T05:04:37.281Z,82.78
2018-03-28T05:07:04.740Z,83.17
2018-03-28T05:09:32.251Z,83.51
2018-03-28T05:12:00.668Z,83.55
2018-03-28T05:14:28.168Z,83.43
2018-03-28T05:16:55.646Z,83.65
2018-03-28T05:19:23.156Z,82.88
2018-03-28T05:21:51.600Z,83.53
2018-03-28T05:24:20.005Z,83.27
2018-03-28T05:26:47.452Z,83.24
2018-03-28T05:29:14.933Z,82.82
2018-03-28T05:31:42.383Z,83.03
2018-03-28T05:34:09.886Z,82.70
2018-03-28T05:36:37.341Z,82.47
2018-03-28T05:39:06.585Z,82.43
2018-03-28T05:41:35.068Z,82.44
2018-03-28T05:44:02.524Z,81.98
2018-03-28T05:46:30.040Z,81.71
2018-03-28T05:48:57.498Z,81.30
2018-03-28T05:51:24.990Z,80.97
2018-03-28T05:53:52.465Z,80.75
2018-03-28T05:56:19.955Z,80.30
2018-03-28T05:58:47.425Z,79.84
2018-03-28T06:01:14.918Z,79.43
2018-03-28T06:03:42.374Z,78.63
2018-03-28T06:06:09.866Z,78.42
2018-03-28T06:08:37.317Z,77.79
2018-03-28T06:11:04.895Z,77.21
2018-03-28T06:13:32.374Z,77.89
2018-03-28T06:15:59.873Z,77.71
2018-03-28T06:18:27.409Z,78.02
2018-03-28T06:20:54.885Z,76.97
2018-03-28T06:23:22.342Z,76.53
2018-03-28T06:25:49.797Z,76.43
2018-03-28T06:28:18.293Z,75.58
2018-03-28T06:30:45.745Z,75.05
2018-03-28T06:33:13.234Z,75.40
2018-03-28T06:35:40.692Z,74.36
2018-03-28T06:38:08.194Z,73.93
2018-03-28T06:40:35.641Z,74.11
2018-03-28T06:43:03.130Z,74.10
2018-03-28T06:45:30.580Z,73.85
2018-03-28T06:47:58.064Z,73.16
2018-03-28T06:50:25.513Z,73.09
2018-03-28T06:52:52.993Z,73.35
2018-03-28T06:55:21.406Z,73.25
2018-03-28T06:57:48.908Z,72.69
2018-03-28T07:00:16.445Z,73.27
2018-03-28T07:02:44.936Z,72.96
2018-03-28T07:05:12.494Z,72.92
2018-03-28T07:07:39.977Z,72.83
2018-03-28T07:10:07.433Z,71.82
2018-03-28T07:12:34.914Z,71.28
2018-03-28T07:15:02.373Z,70.71
2018-03-28T07:17:29.890Z,70.95
2018-03-28T07:19:57.344Z,70.63
2018-03-28T07:22:24.796Z,70.45
2018-03-28T07:24:52.304Z,70.39
2018-03-28T07:27:19.766Z,69.87
2018-03-28T07:29:48.291Z,69.43
2018-03-28T07:32:15.745Z,68.81
2018-03-28T07:34:43.233Z,67.70
2018-03-28T07:37:10.685Z,67.46
2018-03-28T07:39:38.179Z,66.27
2018-03-28T07:42:05.638Z,66.17
2018-03-28T07:44:33.137Z,66.89
2018-03-28T07:47:00.601Z,66.20
2018-03-28T07:49:28.089Z,65.21
2018-03-28T07:51:55.552Z,65.80
2018-03-28T07:54:23.025Z,66.26
2018-03-28T07:56:50.476Z,66.34
2018-03-28T07:59:17.969Z,65.00
2018-03-28T08:01:45.423Z,65.44
2018-03-28T08:04:12.877Z,65.50
2018-03-28T08:06:40.354Z,65.82
2018-03-28T08:09:08.002Z,66.42
2018-03-28T08:11:35.513Z,65.50
2018-03-28T08:14:02.962Z,65.72
2018-03-28T08:16:30.453Z,65.76
2018-03-28T08:18:57.908Z,65.21
2018-03-28T08:21:25.414Z,65.35
2018-03-28T08:23:52.877Z,65.66
2018-03-28T08:26:20.358Z,65.61
2018-03-28T08:28:47.826Z,65.71
2018-03-28T08:31:15.334Z,65.67
2018-03-28T08:33:42.787Z,65.85
2018-03-28T08:36:11.174Z,65.32
2018-03-28T08:38:38.630Z,65.96
2018-03-28T08:41:06.122Z,65.78
2018-03-28T08:43:35.504Z,65.88
2018-03-28T08:46:03.940Z,65.06
2018-03-28T08:48:32.398Z,65.25
2018-03-28T08:50:59.905Z,65.41
2018-03-28T08:53:28.337Z,65.09
2018-03-28T08:55:56.758Z,65.42
2018-03-28T08:58:24.210Z,65.77
2018-03-28T09:00:51.713Z,64.87
2018-03-28T09:03:20.128Z,65.61
2018-03-28T09:05:48.597Z,65.60
2018-03-28T09:08:18.034Z,64.54
2018-03-28T09:10:45.513Z,64.24
2018-03-28T09:13:13.006Z,63.66
2018-03-28T09:15:41.385Z,62.83
2018-03-28T09:18:09.806Z,61.84
2018-03-28T09:20:37.259Z,63.86
2018-03-28T09:23:04.814Z,62.17
2018-03-28T09:25:32.226Z,62.01
2018-03-28T09:27:59.717Z,60.38
2018-03-28T09:30:27.168Z,59.01
2018-03-28T09:32:54.644Z,59.15
2018-03-28T09:35:22.117Z,59.85
2018-03-28T09:37:49.644Z,59.75
2018-03-28T09:40:17.093Z,59.70
2018-03-28T09:42:44.587Z,59.52
2018-03-28T09:45:12.054Z,60.20
2018-03-28T09:47:40.494Z,60.62
2018-03-28T09:50:07.946Z,60.04
2018-03-28T09:52:35.442Z,59.92
2018-03-28T09:55:03.869Z,59.76
2018-03-28T09:57:33.317Z,59.87
2018-03-28T10:00:00.769Z,60.21
2018-03-28T10:02:31.017Z,60.15
2018-03-28T10:04:59.438Z,59.69
2018-03-28T10:07:26.885Z,59.43
2018-03-28T10:09:54.374Z,60.03
2018-03-28T10:12:21.819Z,60.25
2018-03-28T10:14:49.300Z,59.54
2018-03-28T10:17:17.800Z,59.57
2018-03-28T10:19:45.258Z,59.40
2018-03-28T10:22:12.718Z,58.73
2018-03-28T10:24:40.204Z,58.86
2018-03-28T10:27:07.681Z,58.78
2018-03-28T10:29:35.164Z,58.83
2018-03-28T10:32:02.618Z,58.93
2018-03-28T10:34:30.131Z,59.02
2018-03-28T10:36:59.528Z,59.17
2018-03-28T10:39:27.014Z,59.46
2018-03-28T10:41:56.413Z,59.09
2018-03-28T10:44:24.918Z,59.24
2018-03-28T10:46:52.377Z,59.78
2018-03-28T10:49:19.874Z,59.77
2018-03-28T10:51:47.345Z,59.69
2018-03-28T10:54:15.725Z,59.34
2018-03-28T10:56:43.204Z,59.80
2018-03-28T10:59:10.652Z,59.93
2018-03-28T11:01:38.130Z,60.19
2018-03-28T11:04:05.575Z,60.33
2018-03-28T11:06:33.052Z,60.41
2018-03-28T11:09:00.508Z,60.47
2018-03-28T11:11:28.025Z,59.66
2018-03-28T11:13:55.481Z,60.36
2018-03-28T11:16:22.981Z,60.67
2018-03-28T11:18:50.649Z,60.92
2018-03-28T11:21:18.133Z,60.73
2018-03-28T11:23:45.699Z,61.91
2018-03-28T11:26:13.188Z,61.93
2018-03-28T11:28:40.660Z,61.84
2018-03-28T11:31:08.141Z,61.63
2018-03-28T11:33:35.597Z,61.44
2018-03-28T11:36:03.080Z,62.40
2018-03-28T11:38:31.472Z,62.37
2018-03-28T11:40:58.958Z,61.85
2018-03-28T11:43:27.337Z,61.53
2018-03-28T11:45:54.793Z,61.85
2018-03-28T11:48:22.307Z,61.69
2018-03-28T11:50:50.718Z,61.12
2018-03-28T11:53:19.115Z,61.02
2018-03-28T11:55:46.569Z,60.82
2018-03-28T11:58:14.052Z,58.39
2018-03-28T12:00:41.518Z,58.47
2018-03-28T12:03:09.015Z,59.11
2018-03-28T12:05:36.490Z,58.57
2018-03-28T12:08:03.977Z,57.45
2018-03-28T12:10:32.412Z,56.68
2018-03-28T12:12:59.942Z,54.61
2018-03-28T12:15:27.401Z,54.29
2018-03-28T12:17:54.889Z,55.55
2018-03-28T12:20:22.347Z,55.41
2018-03-28T12:22:49.937Z,55.48
2018-03-28T12:25:17.531Z,55.37
2018-03-28T12:27:46.119Z,54.89
2018-03-28T12:30:13.657Z,56.46
2018-03-28T12:32:41.164Z,57.27
2018-03-28T12:35:08.649Z,56.96
2018-03-28T12:37:36.105Z,57.78
2018-03-28T12:40:04.566Z,57.70
2018-03-28T12:42:32.029Z,58.90
2018-03-28T12:44:59.541Z,59.10
2018-03-28T12:47:28.139Z,59.48
2018-03-28T12:49:55.766Z,59.91
2018-03-28T12:52:26.254Z,60.10
2018-03-28T12:54:54.737Z,60.10
2018-03-28T12:57:22.410Z,59.98
2018-03-28T12:59:49.747Z,59.76
2018-03-28T13:02:17.230Z,60.50
2018-03-28T13:04:49.095Z,60.28
2018-03-28T13:07:16.546Z,60.31
2018-03-28T13:09:44.082Z,59.82
2018-03-28T13:12:11.659Z,60.82
2018-03-28T13:14:39.327Z,60.82
2018-03-28T13:17:06.784Z,60.35
2018-03-28T13:19:34.297Z,61.09
2018-03-28T13:22:01.749Z,61.47
2018-03-28T13:24:29.261Z,61.10
2018-03-28T13:26:56.716Z,60.94
2018-03-28T13:29:24.178Z,61.05
2018-03-28T13:31:51.661Z,61.29
2018-03-28T13:34:19.173Z,60.64
2018-03-28T13:36:46.682Z,60.45
2018-03-28T13:39:15.131Z,60.81
2018-03-28T13:41:42.617Z,61.26
2018-03-28T13:44:12.044Z,61.38
2018-03-28T13:46:39.538Z,61.35
2018-03-28T13:49:07.016Z,59.76
2018-03-28T13:51:35.464Z,59.96
2018-03-28T13:54:02.921Z,60.51
2018-03-28T13:56:31.391Z,60.95
2018-03-28T13:58:58.859Z,61.13
2018-03-28T14:01:26.381Z,61.64
2018-03-28T14:03:54.753Z,61.58
2018-03-28T14:06:22.244Z,61.57
2018-03-28T14:08:49.718Z,61.73
2018-03-28T14:11:17.218Z,61.53
2018-03-28T14:13:44.670Z,62.13
2018-03-28T14:16:13.101Z,61.36
2018-03-28T14:18:40.618Z,61.70
2018-03-28T14:21:08.069Z,62.17
2018-03-28T14:23:35.526Z,62.28
2018-03-28T14:26:03.050Z,62.02
2018-03-28T14:28:30.535Z,62.59
2018-03-28T14:30:58.006Z,63.46
2018-03-28T14:33:25.489Z,64.30
2018-03-28T14:35:52.953Z,64.35
2018-03-28T14:38:21.428Z,64.26
2018-03-28T14:40:49.750Z,63.60
2018-03-28T14:43:17.229Z,63.51
2018-03-28T14:45:45.650Z,63.14
2018-03-28T14:48:14.130Z,63.17
2018-03-28T14:50:42.578Z,62.69
2018-03-28T14:53:10.094Z,62.29
2018-03-28T14:55:37.535Z,62.65
2018-03-28T14:58:05.235Z,62.20
2018-03-28T15:00:32.687Z,61.85
2018-03-28T15:03:00.190Z,62.28
2018-03-28T15:05:28.650Z,61.67
2018-03-28T15:07:57.016Z,62.01
2018-03-28T15:10:24.476Z,61.56
2018-03-28T15:12:52.896Z,60.91
2018-03-28T15:15:21.345Z,60.31
2018-03-28T15:17:48.837Z,61.15
2018-03-28T15:20:16.383Z,61.33
2018-03-28T15:22:43.837Z,61.61
2018-03-28T15:25:11.342Z,61.98
2018-03-28T15:27:38.793Z,62.31
2018-03-28T15:30:06.281Z,62.54
2018-03-28T15:32:33.742Z,62.79
2018-03-28T15:35:01.224Z,63.08
2018-03-28T15:37:29.684Z,63.24
2018-03-28T15:39:57.180Z,63.88
2018-03-28T15:42:24.646Z,63.63
2018-03-28T15:44:52.143Z,64.13
2018-03-28T15:47:19.597Z,64.24
2018-03-28T15:49:47.080Z,64.64
2018-03-28T15:52:14.537Z,64.54
2018-03-28T15:54:42.034Z,64.23
2018-03-28T15:57:09.480Z,64.22
2018-03-28T15:59:37.909Z,64.29
2018-03-28T16:02:05.357Z,64.41
2018-03-28T16:04:33.797Z,64.04
2018-03-28T16:07:02.233Z,64.21
2018-03-28T16:09:30.652Z,64.03
2018-03-28T16:11:58.117Z,63.66
2018-03-28T16:14:25.572Z,63.37
2018-03-28T16:16:53.121Z,63.51
2018-03-28T16:19:20.573Z,62.78
2018-03-28T16:21:51.352Z,62.36
2018-03-28T16:24:18.815Z,62.43
2018-03-28T16:26:46.309Z,62.59
2018-03-28T16:29:13.757Z,62.00
2018-03-28T16:31:41.298Z,61.74
2018-03-28T16:34:09.701Z,61.38
2018-03-28T16:36:37.250Z,61.59
2018-03-28T16:39:04.690Z,61.79
2018-03-28T16:41:32.165Z,61.65
2018-03-28T16:43:59.618Z,61.42
2018-03-28T16:46:27.097Z,61.81
2018-03-28T16:48:57.617Z,61.84
2018-03-28T16:51:25.107Z,61.66
2018-03-28T16:53:52.561Z,61.99
2018-03-28T16:56:20.064Z,61.88
2018-03-28T16:58:49.472Z,61.81
2018-03-28T17:01:16.970Z,61.77
2018-03-28T17:03:44.456Z,61.86
2018-03-28T17:06:11.972Z,61.90
2018-03-28T17:08:43.137Z,61.80
2018-03-28T17:11:10.587Z,62.01
2018-03-28T17:13:38.145Z,62.34
2018-03-28T17:16:05.600Z,61.98
2018-03-28T17:18:33.084Z,62.36
2018-03-28T17:21:00.618Z,62.44
2018-03-28T17:23:28.164Z,62.52
2018-03-28T17:25:56.612Z,62.68
2018-03-28T17:28:25.037Z,62.60
2018-03-28T17:30:52.589Z,62.35
2018-03-28T17:33:20.073Z,62.47
2018-03-28T17:35:47.525Z,61.89
2018-03-28T17:38:15.005Z,62.39
2018-03-28T17:40:43.426Z,62.29
2018-03-28T17:43:11.920Z,62.17
2018-03-28T17:45:40.365Z,63.26
2018-03-28T17:48:07.854Z,63.83
2018-03-28T17:50:35.321Z,64.10
2018-03-28T17:53:03.825Z,65.09
2018-03-28T17:55:31.270Z,65.92
2018-03-28T17:57:58.769Z,66.84
2018-03-28T18:03:28.552Z,69.26
2018-03-28T18:05:56.033Z,70.25
2018-03-28T18:08:23.777Z,71.36
2018-03-28T18:10:51.238Z,72.38
2018-03-28T18:13:18.729Z,73.15
2018-03-28T18:15:46.184Z,74.39
2018-03-28T18:18:13.638Z,76.12
2018-03-28T18:20:41.117Z,77.36
2018-03-28T18:23:09.490Z,78.62
2018-03-28T18:25:38.954Z,79.76
2018-03-28T18:28:06.500Z,81.19
2018-03-28T18:33:05.576Z,82.59
2018-03-28T18:35:33.066Z,83.24
2018-03-28T18:38:00.519Z,83.55
2018-03-28T18:40:28.063Z,84.17
2018-03-28T18:42:55.494Z,84.77
2018-03-28T18:45:22.977Z,84.84
2018-03-28T18:47:50.437Z,84.89
2018-03-28T18:50:17.935Z,85.58
2018-03-28T18:52:45.387Z,85.38
2018-03-28T18:55:12.873Z,85.68
2018-03-28T18:57:40.331Z,86.08
2018-03-28T19:00:07.806Z,86.35
2018-03-28T19:02:35.253Z,86.59
2018-03-28T19:05:02.741Z,86.40
2018-03-28T19:07:30.227Z,86.46
2018-03-28T19:09:57.686Z,86.40
2018-03-28T19:12:25.175Z,87.14
2018-03-28T19:14:52.757Z,87.35
2018-03-28T19:17:20.252Z,87.32
2018-03-28T19:19:47.706Z,87.03
2018-03-28T19:22:15.192Z,87.14
2018-03-28T19:24:43.551Z,87.26
2018-03-28T19:27:11.045Z,87.78
2018-03-28T19:29:38.513Z,87.79
2018-03-28T19:32:06.000Z,87.80
2018-03-28T19:34:33.452Z,87.90
2018-03-28T19:37:00.949Z,88.08
2018-03-28T19:39:29.378Z,88.34
2018-03-28T19:41:56.885Z,88.19
2018-03-28T19:44:24.356Z,88.15
2018-03-28T19:46:51.840Z,88.53
2018-03-28T19:49:19.297Z,88.30
2018-03-28T19:51:46.787Z,89.03
2018-03-28T19:54:15.184Z,89.00
2018-03-28T19:56:43.658Z,88.43
2018-03-28T19:59:11.113Z,88.98
2018-03-28T20:01:38.605Z,89.28
2018-03-28T20:04:06.061Z,89.39
2018-03-28T20:06:33.519Z,89.72
2018-03-28T20:09:01.974Z,89.33
2018-03-28T20:11:29.447Z,90.07
2018-03-28T20:13:56.933Z,89.87
2018-03-28T20:16:24.401Z,90.05
2018-03-28T20:18:51.889Z,89.94
2018-03-28T20:21:19.387Z,90.07
2018-03-28T20:23:47.832Z,89.85
2018-03-28T20:26:15.281Z,90.19
2018-03-28T20:28:42.761Z,90.65
2018-03-28T20:31:10.212Z,90.65
2018-03-28T20:33:37.753Z,90.93
2018-03-28T20:36:05.309Z,91.04
2018-03-28T20:38:32.785Z,90.88
2018-03-28T20:41:00.241Z,90.94
2018-03-28T20:43:27.728Z,90.94
2018-03-28T20:45:55.179Z,91.03
2018-03-28T20:48:22.877Z,91.06
2018-03-28T20:50:50.373Z,91.24
2018-03-28T20:53:17.848Z,91.04
2018-03-28T20:55:45.322Z,91.21
2018-03-28T20:58:12.809Z,91.19
2018-03-28T21:00:40.283Z,91.41
2018-03-28T21:03:07.854Z,91.31
2018-03-28T21:05:35.316Z,91.02
2018-03-28T21:08:02.820Z,91.16
2018-03-28T21:10:31.214Z,91.35
2018-03-28T21:12:58.681Z,90.70
2018-03-28T21:15:26.181Z,90.67
2018-03-28T21:17:53.644Z,90.93
2018-03-28T21:20:22.110Z,91.28
2018-03-28T21:22:49.579Z,91.18
2018-03-28T21:25:17.070Z,91.38
2018-03-28T21:27:44.539Z,91.14
2018-03-28T21:30:12.116Z,91.01
2018-03-28T21:32:39.586Z,90.84
2018-03-28T21:35:07.194Z,91.03
2018-03-28T21:37:34.646Z,91.08
2018-03-28T21:40:02.149Z,91.03
2018-03-28T21:42:29.605Z,91.16
2018-03-28T21:44:57.137Z,91.31
2018-03-28T21:47:24.589Z,91.43
2018-03-28T21:49:52.081Z,91.59
2018-03-28T21:52:19.539Z,91.28
2018-03-28T21:54:47.039Z,91.59
2018-03-28T21:57:14.502Z,91.83
2018-03-28T21:59:42.026Z,92.04
2018-03-28T22:02:09.525Z,91.84
2018-03-28T22:04:37.034Z,92.17
2018-03-28T22:07:04.531Z,91.75
2018-03-28T22:09:31.996Z,91.75
2018-03-28T22:11:59.510Z,91.75
2018-03-28T22:14:27.008Z,91.95
2018-03-28T22:16:54.502Z,91.79
2018-03-28T22:19:21.959Z,91.84
2018-03-28T22:21:49.509Z,91.79
2018-03-28T22:24:16.987Z,91.99
2018-03-28T22:26:44.477Z,91.57
2018-03-28T22:29:11.927Z,92.10
2018-03-28T22:31:39.402Z,92.68
2018-03-28T22:34:06.849Z,92.12
2018-03-28T22:36:34.321Z,92.24
2018-03-28T22:39:01.776Z,92.31
2018-03-28T22:41:29.331Z,92.51
2018-03-28T22:43:56.742Z,92.26
2018-03-28T22:46:25.321Z,92.47
2018-03-28T22:48:52.835Z,92.57
2018-03-28T22:51:20.332Z,92.68
2018-03-28T22:53:47.775Z,93.15
2018-03-28T22:56:15.249Z,92.64
2018-03-28T22:58:42.692Z,92.97
2018-03-28T23:01:10.236Z,92.46
2018-03-28T23:03:37.789Z,92.51
2018-03-28T23:06:05.253Z,92.54
2018-03-28T23:08:32.731Z,92.25
2018-03-28T23:11:00.233Z,92.63
2018-03-28T23:13:27.720Z,92.58
2018-03-28T23:15:55.156Z,92.02
2018-03-28T23:18:22.630Z,92.44
2018-03-28T23:20:50.096Z,92.57
2018-03-28T23:23:17.610Z,93.27
2018-03-28T23:25:45.062Z,92.76
2018-03-28T23:28:12.549Z,92.85
2018-03-28T23:30:40.009Z,92.57
2018-03-28T23:33:07.489Z,92.28
2018-03-28T23:35:34.934Z,92.82
2018-03-28T23:38:04.390Z,92.86
2018-03-28T23:40:31.893Z,92.53
2018-03-28T23:42:59.390Z,92.68
2018-03-28T23:45:26.862Z,92.71
2018-03-28T23:47:54.389Z,93.13
2018-03-28T23:50:21.837Z,93.57
2018-03-28T23:52:49.291Z,93.05
2018-03-28T23:55:16.829Z,93.35
2018-03-28T23:57:44.269Z,93.33
